Time;durP1;ratioP1;P1;durP2;ratioP2;P2;SDS_P1;SDS_P2;PMS_P1;PMS_P2;Temp;Humidity;BMP_temperature;BMP_pressure;BME280_temperature;BME280_humidity;BME280_pressure;Samples;Min_cycle;Max_cycle;Signal;HPM_P1;HPM_P2
2021/08/11 00:00:10;;;;;;;9.40;3.80;;;14.20;99.90;;;;;;5090930;28;20035;-67
2021/08/11 00:02:36;;;;;;;9.27;3.70;;;14.20;99.90;;;;;;5091625;28;20038;-67
2021/08/11 00:05:02;;;;;;;7.70;3.00;;;14.20;99.90;;;;;;5090499;28;20282;-67
2021/08/11 00:07:27;;;;;;;11.57;4.07;;;14.20;99.90;;;;;;5091061;28;20036;-67
2021/08/11 00:09:54;;;;;;;7.82;2.67;;;14.20;99.90;;;;;;5090899;28;20035;-67
2021/08/11 00:12:19;;;;;;;8.27;3.38;;;14.20;99.90;;;;;;5090697;28;20114;-67
2021/08/11 00:14:45;;;;;;;9.75;3.28;;;14.20;99.90;;;;;;5091030;28;20123;-68
2021/08/11 00:17:11;;;;;;;9.00;3.20;;;14.20;99.90;;;;;;5090025;28;20038;-67
2021/08/11 00:19:36;;;;;;;7.45;3.40;;;14.10;99.90;;;;;;5090741;28;20047;-67
2021/08/11 00:22:02;;;;;;;7.80;2.97;;;14.10;99.90;;;;;;5082372;28;20115;-67
2021/08/11 00:24:28;;;;;;;7.80;3.60;;;14.10;99.90;;;;;;5090774;28;20500;-67
2021/08/11 00:26:53;;;;;;;9.05;2.88;;;14.10;99.90;;;;;;5090416;28;20036;-67
2021/08/11 00:29:19;;;;;;;9.38;3.28;;;14.10;99.90;;;;;;5090628;28;20040;-67
2021/08/11 00:31:45;;;;;;;6.45;2.92;;;14.10;99.90;;;;;;5090574;28;20028;-68
2021/08/11 00:34:10;;;;;;;6.53;3.03;;;14.10;99.90;;;;;;5090298;28;20059;-67
2021/08/11 00:36:36;;;;;;;6.95;3.45;;;14.10;99.90;;;;;;5090507;28;20487;-67
2021/08/11 00:39:01;;;;;;;6.25;3.08;;;14.10;99.90;;;;;;5089654;28;20028;-68
2021/08/11 00:41:27;;;;;;;7.20;2.55;;;14.10;99.90;;;;;;5090767;28;20032;-67
2021/08/11 00:43:53;;;;;;;8.18;3.08;;;14.10;99.90;;;;;;5090481;28;20134;-67
2021/08/11 00:46:19;;;;;;;8.27;2.92;;;14.10;99.90;;;;;;5089804;28;20038;-67
2021/08/11 00:48:45;;;;;;;7.22;2.90;;;14.10;99.90;;;;;;5089936;28;20107;-67
2021/08/11 00:51:12;;;;;;;6.30;2.95;;;14.10;99.90;;;;;;5089783;28;20036;-67
2021/08/11 00:53:40;;;;;;;7.68;2.58;;;14.20;99.90;;;;;;5090420;28;20528;-67
2021/08/11 00:56:07;;;;;;;6.20;2.60;;;14.10;99.90;;;;;;5089571;28;20035;-68
2021/08/11 00:58:35;;;;;;;7.15;2.80;;;14.10;99.90;;;;;;5090410;28;20092;-67
2021/08/11 01:01:02;;;;;;;6.53;2.40;;;14.10;99.90;;;;;;5090279;28;20039;-67
2021/08/11 01:03:29;;;;;;;6.97;2.35;;;14.10;99.90;;;;;;5089756;28;20043;-67
2021/08/11 01:05:59;;;;;;;8.18;2.92;;;14.10;99.90;;;;;;5089638;28;20031;-67
2021/08/11 01:08:26;;;;;;;5.15;2.38;;;14.00;99.90;;;;;;5089772;28;20020;-67
2021/08/11 01:10:52;;;;;;;9.45;2.83;;;14.00;99.90;;;;;;5090034;28;20039;-67
2021/08/11 01:13:18;;;;;;;6.07;2.60;;;14.10;99.90;;;;;;5090130;28;20034;-66
2021/08/11 01:15:47;;;;;;;5.55;2.67;;;14.00;99.90;;;;;;5089793;28;20039;-67
2021/08/11 01:18:17;;;;;;;8.57;3.20;;;14.00;99.90;;;;;;5078950;28;20027;-67
2021/08/11 01:20:52;;;;;;;4.88;2.58;;;14.00;99.90;;;;;;5089380;28;20489;-67
2021/08/11 01:23:22;;;;;;;6.38;2.60;;;14.00;99.90;;;;;;5077313;28;20118;-67
2021/08/11 01:25:56;;;;;;;5.85;2.70;;;14.00;99.90;;;;;;5085911;28;20020;-66
2021/08/11 01:28:44;;;;;;;6.70;2.30;;;14.00;99.90;;;;;;5086209;28;20043;-67
2021/08/11 01:31:17;;;;;;;7.32;2.67;;;14.00;99.90;;;;;;5088584;28;20020;-67
2021/08/11 01:34:01;;;;;;;6.13;2.75;;;14.00;99.90;;;;;;5089161;28;20043;-67
2021/08/11 01:36:48;;;;;;;6.82;2.45;;;14.00;99.90;;;;;;5086283;28;20036;-67
2021/08/11 01:39:43;;;;;;;5.47;2.47;;;14.00;99.90;;;;;;5081317;28;20028;-67
2021/08/11 01:42:25;;;;;;;8.55;3.10;;;14.00;99.90;;;;;;5083813;28;20024;-67
2021/08/11 01:45:06;;;;;;;5.63;2.60;;;14.10;99.90;;;;;;5085532;28;20658;-67
2021/08/11 01:47:50;;;;;;;6.50;2.45;;;14.00;99.90;;;;;;5088715;28;20036;-67
2021/08/11 01:50:19;;;;;;;10.18;2.80;;;14.00;99.90;;;;;;5085210;28;20686;-67
2021/08/11 01:52:47;;;;;;;5.10;2.58;;;14.00;99.90;;;;;;5085113;28;20123;-66
2021/08/11 01:55:13;;;;;;;7.28;2.88;;;14.00;99.90;;;;;;5084768;28;20114;-67
2021/08/11 01:57:49;;;;;;;8.48;3.05;;;13.90;99.90;;;;;;5078532;28;20035;-66
2021/08/11 02:00:18;;;;;;;7.10;2.75;;;14.00;99.90;;;;;;5084856;28;20426;-67
2021/08/11 02:02:46;;;;;;;10.00;2.60;;;13.90;99.90;;;;;;5081143;28;20032;-67
2021/08/11 02:05:13;;;;;;;8.52;2.88;;;13.90;99.90;;;;;;5088753;28;20896;-67
2021/08/11 02:07:39;;;;;;;7.65;2.85;;;13.80;99.90;;;;;;5088645;28;20078;-67
2021/08/11 02:10:07;;;;;;;7.53;2.85;;;13.80;99.90;;;;;;5088568;28;20095;-66
2021/08/11 02:12:33;;;;;;;6.95;2.97;;;13.80;99.90;;;;;;5088966;28;20111;-67
2021/08/11 02:14:59;;;;;;;8.68;3.58;;;13.80;99.90;;;;;;5088642;28;20115;-67
2021/08/11 02:17:24;;;;;;;5.63;2.92;;;13.80;99.90;;;;;;5088565;28;20036;-67
2021/08/11 02:19:50;;;;;;;7.25;2.80;;;13.80;99.90;;;;;;5078979;28;20028;-67
2021/08/11 02:22:16;;;;;;;7.63;3.47;;;13.80;99.90;;;;;;5088555;28;20056;-67
2021/08/11 02:24:42;;;;;;;5.47;3.38;;;13.90;99.90;;;;;;5088921;28;20039;-67
2021/08/11 02:27:17;;;;;;;6.25;3.22;;;13.80;99.90;;;;;;5087463;28;20697;-68
2021/08/11 02:30:02;;;;;;;7.35;3.58;;;13.80;99.90;;;;;;5085194;28;20039;-67
2021/08/11 02:32:33;;;;;;;9.50;3.42;;;13.80;99.90;;;;;;5086810;28;20042;-67
2021/08/11 02:35:12;;;;;;;8.88;3.38;;;13.80;99.90;;;;;;5088655;28;20081;-66
2021/08/11 02:37:46;;;;;;;13.75;4.13;;;13.80;99.90;;;;;;5087943;28;20055;-66
2021/08/11 02:40:20;;;;;;;10.38;3.67;;;13.80;99.90;;;;;;5080194;28;20036;-67
2021/08/11 02:42:57;;;;;;;14.02;4.05;;;13.80;99.90;;;;;;5084046;28;20047;-67
2021/08/11 02:45:25;;;;;;;8.43;4.65;;;13.80;99.90;;;;;;5075801;28;20119;-67
2021/08/11 02:47:51;;;;;;;13.38;4.88;;;13.80;99.90;;;;;;5087535;28;20028;-67
2021/08/11 02:50:16;;;;;;;11.65;4.25;;;13.80;99.90;;;;;;5088483;28;20540;-68
2021/08/11 02:52:44;;;;;;;12.77;4.85;;;13.70;99.90;;;;;;5087689;28;20032;-67
2021/08/11 02:55:11;;;;;;;8.13;4.85;;;13.80;99.90;;;;;;5088414;28;20461;-67
2021/08/11 02:57:38;;;;;;;12.77;4.82;;;13.80;99.90;;;;;;5082086;28;20728;-67
2021/08/11 03:00:05;;;;;;;11.27;5.32;;;13.80;99.90;;;;;;5078680;28;20085;-67
2021/08/11 03:02:31;;;;;;;14.32;5.63;;;13.80;99.90;;;;;;5091733;28;20056;-67
2021/08/11 03:04:58;;;;;;;13.90;4.95;;;13.80;99.90;;;;;;5092699;28;20115;-67
2021/08/11 03:07:24;;;;;;;11.60;5.38;;;13.80;99.90;;;;;;5092114;28;20150;-67
2021/08/11 03:09:50;;;;;;;10.52;5.20;;;13.80;99.90;;;;;;5091868;28;20672;-67
2021/08/11 03:12:17;;;;;;;11.38;5.15;;;13.80;99.90;;;;;;5092238;28;20043;-67
2021/08/11 03:14:44;;;;;;;10.23;5.35;;;13.80;99.90;;;;;;5091670;28;20032;-67
2021/08/11 03:17:11;;;;;;;12.27;5.00;;;13.80;99.90;;;;;;5091749;28;20032;-67
2021/08/11 03:19:38;;;;;;;13.75;6.47;;;13.80;99.90;;;;;;5091246;28;20036;-66
2021/08/11 03:22:06;;;;;;;10.52;5.72;;;13.80;99.90;;;;;;5092222;28;20488;-67
2021/08/11 03:24:31;;;;;;;10.60;5.50;;;13.80;99.90;;;;;;5091300;28;20047;-68
2021/08/11 03:26:57;;;;;;;12.38;6.20;;;13.80;99.90;;;;;;5092016;28;20039;-67
2021/08/11 03:29:22;;;;;;;11.82;5.43;;;13.90;99.90;;;;;;5091466;28;20036;-67
2021/08/11 03:31:48;;;;;;;10.43;5.50;;;13.80;99.90;;;;;;5091382;28;20054;-67
2021/08/11 03:34:13;;;;;;;19.27;7.55;;;13.80;99.90;;;;;;5091409;28;20032;-67
2021/08/11 03:36:39;;;;;;;17.65;6.57;;;13.90;99.90;;;;;;5091165;28;20036;-67
2021/08/11 03:39:05;;;;;;;13.10;6.30;;;13.80;99.90;;;;;;5091884;28;20465;-67
2021/08/11 03:41:30;;;;;;;15.00;6.20;;;13.90;99.90;;;;;;5091727;28;20593;-67
2021/08/11 03:43:56;;;;;;;16.90;6.88;;;13.90;99.90;;;;;;5091096;28;20091;-67
2021/08/11 03:46:22;;;;;;;13.00;6.50;;;13.90;99.90;;;;;;5091383;28;20036;-67
2021/08/11 03:48:47;;;;;;;16.60;6.85;;;13.90;99.90;;;;;;5091167;28;20081;-67
2021/08/11 03:51:13;;;;;;;13.02;6.65;;;13.90;99.90;;;;;;5091615;28;20078;-67
2021/08/11 03:53:39;;;;;;;15.80;6.47;;;13.80;99.90;;;;;;5090820;28;20036;-67
2021/08/11 03:56:06;;;;;;;12.30;6.65;;;13.80;99.90;;;;;;5087262;28;20120;-67
2021/08/11 03:58:32;;;;;;;12.88;6.35;;;13.80;99.90;;;;;;5091172;28;20028;-67
2021/08/11 04:00:58;;;;;;;14.45;7.20;;;13.80;99.90;;;;;;5090911;28;20028;-67
2021/08/11 04:03:24;;;;;;;16.98;7.10;;;13.80;99.90;;;;;;5091242;28;20036;-67
2021/08/11 04:05:49;;;;;;;15.30;6.40;;;13.80;99.90;;;;;;5090246;28;20127;-67
2021/08/11 04:08:15;;;;;;;13.70;7.00;;;13.80;99.90;;;;;;5090935;28;20040;-67
2021/08/11 04:10:45;;;;;;;15.25;7.03;;;13.70;99.90;;;;;;5090580;28;20032;-67
2021/08/11 04:13:14;;;;;;;15.65;7.32;;;13.70;99.90;;;;;;5090907;28;20036;-67
2021/08/11 04:15:40;;;;;;;13.85;7.13;;;13.80;99.90;;;;;;5081203;28;20513;-66
2021/08/11 04:18:06;;;;;;;16.05;7.50;;;13.80;99.90;;;;;;5090684;28;20027;-67
2021/08/11 04:20:32;;;;;;;18.05;7.95;;;13.80;99.90;;;;;;5091567;28;20036;-67
2021/08/11 04:22:57;;;;;;;16.02;7.55;;;13.80;99.90;;;;;;5090120;28;20115;-67
2021/08/11 04:25:23;;;;;;;16.77;7.43;;;13.80;99.90;;;;;;5090976;28;20147;-67
2021/08/11 04:27:49;;;;;;;17.67;8.32;;;13.80;99.90;;;;;;5090127;28;20055;-67
2021/08/11 04:30:14;;;;;;;14.52;7.40;;;13.80;99.90;;;;;;5090533;28;20035;-67
2021/08/11 04:32:40;;;;;;;22.73;8.60;;;13.80;99.90;;;;;;5090082;28;20032;-67
2021/08/11 04:35:07;;;;;;;19.13;8.48;;;13.80;99.90;;;;;;5090028;28;20039;-66
2021/08/11 04:37:35;;;;;;;16.60;7.63;;;13.80;99.90;;;;;;5089263;28;20566;-67
2021/08/11 04:40:03;;;;;;;22.38;8.00;;;13.80;99.90;;;;;;5079562;28;20024;-67
2021/08/11 04:42:28;;;;;;;21.10;8.07;;;13.80;99.90;;;;;;5090123;28;20036;-67
2021/08/11 04:44:54;;;;;;;17.33;7.70;;;13.80;99.90;;;;;;5089646;28;20034;-67
2021/08/11 04:47:19;;;;;;;16.88;8.57;;;13.80;99.90;;;;;;5089737;28;20062;-67
2021/08/11 04:49:45;;;;;;;19.98;8.05;;;13.90;99.90;;;;;;5089941;28;20485;-67
2021/08/11 04:52:11;;;;;;;16.55;7.80;;;13.90;99.90;;;;;;5090029;28;20473;-67
2021/08/11 04:54:36;;;;;;;18.65;8.48;;;13.80;99.90;;;;;;5090355;28;20036;-67
2021/08/11 04:57:02;;;;;;;15.57;8.65;;;13.90;99.90;;;;;;5085219;28;20373;-67
2021/08/11 04:59:28;;;;;;;18.55;8.93;;;13.90;99.90;;;;;;5084708;28;20474;-67
2021/08/11 05:01:53;;;;;;;22.27;8.35;;;13.90;99.90;;;;;;5088173;28;20033;-68
2021/08/11 05:04:19;;;;;;;22.05;8.35;;;13.90;99.90;;;;;;5088205;28;20058;-67
2021/08/11 05:06:44;;;;;;;21.05;9.23;;;14.00;99.90;;;;;;5087858;28;20058;-66
2021/08/11 05:09:10;;;;;;;19.40;8.88;;;14.00;99.90;;;;;;5086711;28;20039;-67
2021/08/11 05:11:36;;;;;;;21.75;8.80;;;14.00;99.90;;;;;;5088538;28;20024;-67
2021/08/11 05:14:02;;;;;;;15.15;8.20;;;14.00;99.90;;;;;;5087480;28;20028;-68
2021/08/11 05:16:27;;;;;;;18.65;8.60;;;14.00;99.90;;;;;;5087747;28;20039;-67
2021/08/11 05:18:54;;;;;;;22.20;9.50;;;14.10;99.90;;;;;;5081660;28;20489;-67
2021/08/11 05:21:22;;;;;;;15.93;8.07;;;14.10;99.90;;;;;;5088468;28;20451;-68
2021/08/11 05:23:48;;;;;;;19.60;8.73;;;14.20;99.90;;;;;;5088591;28;20040;-68
2021/08/11 05:26:14;;;;;;;24.08;8.40;;;14.20;99.90;;;;;;5087833;28;20444;-67
2021/08/11 05:28:39;;;;;;;18.35;8.73;;;14.20;99.90;;;;;;5088222;28;20024;-67
2021/08/11 05:31:05;;;;;;;19.83;9.02;;;14.30;99.90;;;;;;5073483;28;20088;-67
2021/08/11 05:33:31;;;;;;;22.10;8.68;;;14.30;99.90;;;;;;5088762;28;20063;-67
2021/08/11 05:35:56;;;;;;;16.65;8.20;;;14.40;99.90;;;;;;5088038;28;20059;-68
2021/08/11 05:38:22;;;;;;;21.10;9.15;;;14.50;99.90;;;;;;5087661;28;20039;-67
2021/08/11 05:40:47;;;;;;;17.80;8.55;;;14.60;99.90;;;;;;5088250;28;20047;-67
2021/08/11 05:43:13;;;;;;;16.27;8.27;;;14.80;99.90;;;;;;5087735;28;20040;-68
2021/08/11 05:45:39;;;;;;;18.25;8.38;;;14.90;99.90;;;;;;5088149;28;20157;-67
2021/08/11 05:48:04;;;;;;;20.17;8.32;;;15.00;99.90;;;;;;5073805;28;20072;-67
2021/08/11 05:50:30;;;;;;;18.13;7.97;;;15.30;99.90;;;;;;5089254;28;20089;-66
2021/08/11 05:52:56;;;;;;;15.15;7.03;;;15.40;99.90;;;;;;5070604;28;20040;-67
2021/08/11 05:55:21;;;;;;;15.15;7.05;;;15.60;99.90;;;;;;5067619;28;20032;-66
2021/08/11 05:57:47;;;;;;;15.80;7.40;;;15.60;99.90;;;;;;5067990;28;20040;-67
2021/08/11 06:00:13;;;;;;;13.00;6.63;;;15.60;99.90;;;;;;5067906;28;20037;-68
2021/08/11 06:02:40;;;;;;;14.10;6.78;;;15.60;99.90;;;;;;5068471;28;20028;-68
2021/08/11 06:05:10;;;;;;;16.35;6.85;;;15.60;99.90;;;;;;5067097;28;20035;-68
2021/08/11 06:07:36;;;;;;;16.20;7.18;;;15.60;99.90;;;;;;5067929;28;20048;-67
2021/08/11 06:10:04;;;;;;;16.63;7.88;;;15.70;99.90;;;;;;5068520;28;20059;-67
2021/08/11 06:12:29;;;;;;;16.65;7.53;;;15.80;99.90;;;;;;5066515;28;20032;-67
2021/08/11 06:14:55;;;;;;;12.70;7.25;;;15.90;99.90;;;;;;5068551;28;20035;-68
2021/08/11 06:17:21;;;;;;;12.65;7.05;;;16.10;99.90;;;;;;5066728;28;20044;-67
2021/08/11 06:19:47;;;;;;;15.63;6.50;;;16.30;99.90;;;;;;5067832;28;20036;-67
2021/08/11 06:22:14;;;;;;;13.38;6.53;;;16.50;99.90;;;;;;5067489;28;20037;-68
2021/08/11 06:24:39;;;;;;;15.55;6.82;;;16.60;99.90;;;;;;5067887;28;20531;-67
2021/08/11 06:27:05;;;;;;;15.15;6.28;;;16.90;99.90;;;;;;5067024;28;20036;-67
2021/08/11 06:29:31;;;;;;;14.52;5.80;;;17.00;99.90;;;;;;5067526;28;20028;-68
2021/08/11 06:31:57;;;;;;;13.88;6.43;;;17.20;99.90;;;;;;5067303;28;20421;-68
2021/08/11 06:34:24;;;;;;;14.52;6.68;;;17.50;99.90;;;;;;5066955;28;20060;-67
2021/08/11 06:36:50;;;;;;;11.63;4.97;;;17.70;99.90;;;;;;5066432;28;20626;-68
2021/08/11 06:39:16;;;;;;;11.00;5.28;;;18.00;99.90;;;;;;5066310;28;20040;-67
2021/08/11 06:41:42;;;;;;;10.82;5.57;;;18.30;99.90;;;;;;5066445;28;20036;-68
2021/08/11 06:44:08;;;;;;;9.88;4.65;;;18.70;99.90;;;;;;5066311;28;20044;-68
2021/08/11 06:46:33;;;;;;;8.88;4.45;;;19.30;99.90;;;;;;5065613;28;20493;-68
2021/08/11 06:49:00;;;;;;;8.95;4.72;;;19.80;99.90;;;;;;5065157;28;20035;-68
2021/08/11 06:51:25;;;;;;;15.23;3.88;;;20.10;99.90;;;;;;5063868;28;20036;-68
2021/08/11 06:53:51;;;;;;;8.80;5.15;;;20.50;99.90;;;;;;5066445;28;20062;-68
2021/08/11 06:56:17;;;;;;;9.75;4.18;;;20.60;99.90;;;;;;5065495;28;20127;-68
2021/08/11 06:58:42;;;;;;;6.10;3.70;;;20.80;99.90;;;;;;5066206;28;20170;-68
2021/08/11 07:01:08;;;;;;;7.72;3.50;;;21.00;99.90;;;;;;5066196;28;20089;-68
2021/08/11 07:03:34;;;;;;;6.40;3.72;;;21.30;99.90;;;;;;5066039;28;20040;-68
2021/08/11 07:06:00;;;;;;;7.30;3.80;;;21.70;99.90;;;;;;5065556;28;20029;-68
2021/08/11 07:08:25;;;;;;;6.43;3.20;;;21.90;99.90;;;;;;5066053;28;20029;-68
2021/08/11 07:10:51;;;;;;;8.07;3.78;;;22.50;99.90;;;;;;5066511;28;20040;-68
2021/08/11 07:13:17;;;;;;;6.28;3.47;;;23.10;99.90;;;;;;5066423;28;20029;-69
2021/08/11 07:15:43;;;;;;;6.07;3.42;;;23.60;99.90;;;;;;5065740;28;20079;-68
2021/08/11 07:18:09;;;;;;;7.63;3.50;;;24.20;99.90;;;;;;5066099;28;20070;-68
2021/08/11 07:20:35;;;;;;;7.05;3.65;;;24.90;99.90;;;;;;5065811;28;20036;-69
2021/08/11 07:23:00;;;;;;;5.35;2.88;;;25.10;99.90;;;;;;5066308;28;20443;-68
2021/08/11 07:25:26;;;;;;;6.75;3.47;;;25.20;99.90;;;;;;5065986;28;20044;-68
2021/08/11 07:27:52;;;;;;;5.63;3.67;;;25.40;99.90;;;;;;5066181;28;20052;-68
2021/08/11 07:30:18;;;;;;;6.18;4.05;;;25.50;99.90;;;;;;5063993;28;20048;-68
2021/08/11 07:32:44;;;;;;;8.30;3.80;;;25.80;99.90;;;;;;5061324;28;20033;-68
2021/08/11 07:35:13;;;;;;;7.78;3.65;;;26.00;99.90;;;;;;5066201;28;20036;-68
2021/08/11 07:37:54;;;;;;;9.23;3.25;;;25.90;99.90;;;;;;5065522;28;20137;-69
2021/08/11 07:40:21;;;;;;;7.65;3.50;;;25.80;99.90;;;;;;5066974;28;20404;-68
2021/08/11 07:42:47;;;;;;;9.00;4.20;;;25.70;99.90;;;;;;5069284;28;20025;-68
2021/08/11 07:45:15;;;;;;;7.00;3.70;;;25.30;99.90;;;;;;5069756;28;20064;-68
2021/08/11 07:47:45;;;;;;;8.52;3.65;;;25.20;99.90;;;;;;5068816;28;20629;-69
2021/08/11 07:50:12;;;;;;;6.85;3.35;;;25.20;99.90;;;;;;5069771;28;20047;-68
2021/08/11 07:52:37;;;;;;;9.98;3.38;;;25.00;99.90;;;;;;5069194;28;20109;-69
2021/08/11 07:55:03;;;;;;;8.30;2.80;;;24.70;99.90;;;;;;5069904;28;20056;-68
2021/08/11 07:57:29;;;;;;;6.60;2.30;;;24.10;99.90;;;;;;5068684;28;20538;-68
2021/08/11 07:59:55;;;;;;;6.18;2.60;;;23.80;99.90;;;;;;5069522;28;20119;-68
2021/08/11 08:02:20;;;;;;;5.05;1.95;;;23.70;99.90;;;;;;5069089;28;20040;-68
2021/08/11 08:04:46;;;;;;;4.75;2.08;;;23.70;99.90;;;;;;5068686;28;20025;-68
2021/08/11 08:07:11;;;;;;;4.70;2.10;;;23.80;99.90;;;;;;5069098;28;20409;-67
2021/08/11 08:09:37;;;;;;;4.03;1.88;;;23.70;99.90;;;;;;5068448;28;20551;-68
2021/08/11 08:12:03;;;;;;;4.47;2.05;;;23.30;99.90;;;;;;5067761;28;20045;-67
2021/08/11 08:14:28;;;;;;;4.38;1.95;;;22.90;99.90;;;;;;5068463;28;20040;-68
2021/08/11 08:16:54;;;;;;;4.45;1.77;;;22.70;99.90;;;;;;5068067;28;20036;-67
2021/08/11 08:19:19;;;;;;;4.82;2.15;;;22.50;99.90;;;;;;5068763;28;20042;-67
2021/08/11 08:21:45;;;;;;;3.85;1.73;;;22.30;99.90;;;;;;5068317;28;20107;-67
2021/08/11 08:24:11;;;;;;;6.00;2.28;;;22.10;99.90;;;;;;5068957;28;20033;-67
2021/08/11 08:26:36;;;;;;;5.93;1.95;;;22.00;99.90;;;;;;5067508;28;20043;-67
2021/08/11 08:29:03;;;;;;;4.38;1.85;;;21.80;99.90;;;;;;5068700;28;20504;-68
2021/08/11 08:31:28;;;;;;;9.00;2.33;;;21.60;99.90;;;;;;5067827;28;20044;-67
2021/08/11 08:33:54;;;;;;;7.35;2.78;;;21.60;99.90;;;;;;5068301;28;20037;-68
2021/08/11 08:36:20;;;;;;;5.63;3.08;;;21.50;99.90;;;;;;5068542;28;20047;-67
2021/08/11 08:38:46;;;;;;;9.07;2.83;;;21.30;99.90;;;;;;5068350;28;20119;-67
2021/08/11 08:41:12;;;;;;;5.40;2.65;;;21.30;99.90;;;;;;5068504;28;20037;-67
2021/08/11 08:43:39;;;;;;;5.93;2.65;;;21.20;99.90;;;;;;5067821;28;20101;-67
2021/08/11 08:46:05;;;;;;;4.38;2.10;;;21.20;99.90;;;;;;5067821;28;20142;-67
2021/08/11 08:48:32;;;;;;;7.93;2.95;;;21.20;99.90;;;;;;5069463;28;20443;-67
2021/08/11 08:50:58;;;;;;;4.78;3.05;;;21.30;99.90;;;;;;5068060;28;20028;-67
2021/08/11 08:53:24;;;;;;;5.55;2.33;;;21.50;99.90;;;;;;5070023;28;20055;-67
2021/08/11 08:55:53;;;;;;;8.68;3.30;;;21.60;99.90;;;;;;5068187;28;20044;-67
2021/08/11 08:58:19;;;;;;;9.55;2.83;;;21.70;99.90;;;;;;5064995;28;20033;-67
2021/08/11 09:00:46;;;;;;;7.07;2.47;;;21.90;99.90;;;;;;5061069;28;20048;-67
2021/08/11 09:03:12;;;;;;;6.78;2.35;;;22.00;99.90;;;;;;5067388;28;21658;-67
2021/08/11 09:05:38;;;;;;;5.05;2.60;;;22.00;99.90;;;;;;5067814;28;20036;-67
2021/08/11 09:08:06;;;;;;;6.18;2.80;;;22.10;99.90;;;;;;5067685;28;20029;-67
2021/08/11 09:10:32;;;;;;;7.03;2.38;;;22.20;99.90;;;;;;5067831;28;20036;-68
2021/08/11 09:13:06;;;;;;;9.57;2.88;;;22.30;99.90;;;;;;5066824;28;20035;-67
2021/08/11 09:15:35;;;;;;;6.80;2.30;;;22.30;99.90;;;;;;5067140;28;20029;-68
2021/08/11 09:18:15;;;;;;;4.75;2.45;;;22.30;99.90;;;;;;5065529;28;20063;-67
2021/08/11 09:20:43;;;;;;;5.43;2.45;;;22.50;99.90;;;;;;5067758;28;20037;-67
2021/08/11 09:23:09;;;;;;;4.35;1.90;;;22.60;99.90;;;;;;5067263;28;20116;-67
2021/08/11 09:25:54;;;;;;;6.07;1.90;;;22.70;99.90;;;;;;5067473;28;20461;-67
2021/08/11 09:28:20;;;;;;;7.50;2.13;;;22.70;99.90;;;;;;5064450;28;20477;-67
2021/08/11 09:30:45;;;;;;;6.80;2.50;;;22.90;99.90;;;;;;5068465;28;20074;-68
2021/08/11 09:33:11;;;;;;;5.75;1.80;;;22.90;99.90;;;;;;5068222;28;20591;-67
2021/08/11 09:35:38;;;;;;;7.25;2.55;;;22.90;99.90;;;;;;5068475;28;20036;-67
2021/08/11 09:38:12;;;;;;;2.30;1.67;;;22.80;99.90;;;;;;5067631;28;20035;-67
2021/08/11 09:40:39;;;;;;;3.85;1.75;;;22.90;99.90;;;;;;5068410;28;20786;-67
2021/08/11 09:43:09;;;;;;;2.75;1.33;;;22.90;99.90;;;;;;5067601;28;20025;-68
2021/08/11 09:45:49;;;;;;;10.95;1.83;;;23.00;99.90;;;;;;5068057;28;20028;-67
2021/08/11 09:48:17;;;;;;;3.65;1.75;;;23.10;99.90;;;;;;5062021;28;20515;-67
2021/08/11 09:50:49;;;;;;;3.92;1.70;;;23.10;99.90;;;;;;5068098;28;20028;-67
2021/08/11 09:53:23;;;;;;;4.22;1.33;;;23.20;99.90;;;;;;5063668;28;20394;-67
2021/08/11 09:56:07;;;;;;;3.83;1.60;;;23.30;99.90;;;;;;5060381;28;20024;-67
2021/08/11 09:58:41;;;;;;;2.97;1.27;;;23.30;99.90;;;;;;5061898;28;20561;-67
2021/08/11 10:01:10;;;;;;;3.30;1.33;;;23.30;99.90;;;;;;5068010;28;20028;-68
2021/08/11 10:04:03;;;;;;;4.57;1.40;;;23.10;99.90;;;;;;5087218;28;20063;-67
2021/08/11 10:06:40;;;;;;;1.80;0.77;;;23.00;99.90;;;;;;5085288;28;20036;-68
2021/08/11 10:09:25;;;;;;;3.50;1.45;;;22.80;99.90;;;;;;5077798;28;20061;-67
2021/08/11 10:11:54;;;;;;;3.17;1.45;;;22.70;99.90;;;;;;5072546;28;20119;-67
2021/08/11 10:14:27;;;;;;;4.38;1.50;;;22.90;99.90;;;;;;5067721;28;20063;-67
2021/08/11 10:16:55;;;;;;;3.58;1.52;;;23.20;99.90;;;;;;5067249;28;20028;-67
2021/08/11 10:19:26;;;;;;;3.50;1.65;;;23.40;99.90;;;;;;5067869;28;20044;-68
2021/08/11 10:22:19;;;;;;;5.88;2.10;;;23.70;99.60;;;;;;5066969;28;20326;-68
2021/08/11 10:24:45;;;;;;;5.22;1.58;;;24.00;98.90;;;;;;5063146;28;20036;-68
2021/08/11 10:27:14;;;;;;;3.25;1.10;;;24.20;99.20;;;;;;5058901;28;20041;-68
2021/08/11 10:29:39;;;;;;;7.05;1.52;;;24.50;98.60;;;;;;5066942;28;20422;-67
2021/08/11 10:32:09;;;;;;;5.28;1.52;;;24.70;97.70;;;;;;5067053;28;20493;-67
2021/08/11 10:34:35;;;;;;;2.92;1.10;;;24.80;97.60;;;;;;5066395;28;20416;-68
2021/08/11 10:37:01;;;;;;;4.68;1.25;;;24.70;97.80;;;;;;5059907;28;20035;-68
2021/08/11 10:39:31;;;;;;;3.80;1.50;;;24.70;98.30;;;;;;5067175;28;20062;-67
2021/08/11 10:42:00;;;;;;;5.90;1.30;;;24.70;98.10;;;;;;5066255;28;20489;-67
2021/08/11 10:44:27;;;;;;;3.28;1.95;;;24.80;97.70;;;;;;5067039;28;20547;-67
2021/08/11 10:46:58;;;;;;;4.68;1.55;;;24.90;98.60;;;;;;5065353;28;20128;-68
2021/08/11 10:49:28;;;;;;;5.03;1.50;;;25.00;97.60;;;;;;5067164;28;20075;-67
2021/08/11 10:51:59;;;;;;;3.80;2.00;;;25.00;97.50;;;;;;5067428;28;20078;-68
2021/08/11 10:54:25;;;;;;;5.03;1.45;;;24.90;96.60;;;;;;5067707;28;20453;-68
2021/08/11 10:56:53;;;;;;;4.53;1.40;;;25.00;97.40;;;;;;5066671;28;20025;-67
2021/08/11 10:59:21;;;;;;;3.38;1.40;;;25.00;96.80;;;;;;5061863;28;20131;-69
2021/08/11 11:01:51;;;;;;;5.22;1.63;;;24.90;96.90;;;;;;5063964;28;20068;-67
2021/08/11 11:04:39;;;;;;;5.25;1.50;;;25.00;96.60;;;;;;5066467;28;20048;-68
2021/08/11 11:07:16;;;;;;;3.28;1.10;;;25.20;97.30;;;;;;5085694;28;20104;-67
2021/08/11 11:09:43;;;;;;;4.97;1.13;;;25.10;95.30;;;;;;5072344;28;20632;-68
2021/08/11 11:12:18;;;;;;;3.33;1.02;;;25.10;96.80;;;;;;5081938;28;21455;-67
2021/08/11 11:14:53;;;;;;;3.78;1.15;;;25.00;96.40;;;;;;5067960;28;20039;-68
2021/08/11 11:17:28;;;;;;;4.13;1.40;;;24.80;95.70;;;;;;5069457;28;20480;-68
2021/08/11 11:20:09;;;;;;;5.38;1.30;;;24.80;96.80;;;;;;5070449;28;20033;-68
2021/08/11 11:22:39;;;;;;;4.30;1.08;;;24.80;96.10;;;;;;5072066;28;20051;-68
2021/08/11 11:25:10;;;;;;;4.18;1.17;;;24.90;97.20;;;;;;5068951;28;20044;-68
2021/08/11 11:27:41;;;;;;;3.10;0.90;;;24.90;95.50;;;;;;5070109;28;20032;-67
2021/08/11 11:30:09;;;;;;;3.65;1.20;;;24.90;94.70;;;;;;5070128;28;20043;-68
2021/08/11 11:32:35;;;;;;;3.28;1.30;;;25.00;95.30;;;;;;5069417;28;20489;-67
2021/08/11 11:35:18;;;;;;;4.93;1.33;;;24.90;94.80;;;;;;5069845;28;20032;-67
2021/08/11 11:37:44;;;;;;;1.30;0.82;;;25.00;95.00;;;;;;5070026;28;20047;-67
2021/08/11 11:40:15;;;;;;;2.15;1.02;;;24.90;95.10;;;;;;5069223;28;20628;-67
2021/08/11 11:42:41;;;;;;;4.13;1.50;;;24.90;95.40;;;;;;5068342;28;20037;-68
2021/08/11 11:45:09;;;;;;;2.72;1.30;;;24.90;95.90;;;;;;5067053;28;20041;-67
2021/08/11 11:47:37;;;;;;;2.90;1.20;;;24.90;94.70;;;;;;5069131;28;20432;-67
2021/08/11 11:50:32;;;;;;;2.90;1.15;;;24.90;95.00;;;;;;5067989;28;20051;-68
2021/08/11 11:53:03;;;;;;;3.70;1.35;;;25.10;95.30;;;;;;5068643;28;20036;-68
2021/08/11 11:55:35;;;;;;;3.95;1.55;;;25.20;94.60;;;;;;5067722;28;20036;-68
2021/08/11 11:58:06;;;;;;;4.82;1.55;;;25.40;94.60;;;;;;5067555;28;20043;-67
2021/08/11 12:00:32;;;;;;;2.67;1.08;;;25.40;93.80;;;;;;5069686;28;20496;-67
2021/08/11 12:02:58;;;;;;;2.05;1.13;;;25.50;94.20;;;;;;5068271;28;20055;-68
2021/08/11 12:05:25;;;;;;;3.88;1.20;;;25.30;92.90;;;;;;5069141;28;20443;-67
2021/08/11 12:07:51;;;;;;;3.25;1.10;;;25.30;93.90;;;;;;5069449;28;20511;-67
2021/08/11 12:10:31;;;;;;;2.35;1.10;;;25.10;93.70;;;;;;5068972;28;20370;-67
2021/08/11 12:13:02;;;;;;;4.57;1.38;;;24.90;93.90;;;;;;5070129;28;20086;-67
2021/08/11 12:15:30;;;;;;;3.67;1.10;;;24.80;94.20;;;;;;5069358;28;20047;-67
2021/08/11 12:17:57;;;;;;;2.72;1.02;;;24.60;94.20;;;;;;5068693;28;20408;-67
2021/08/11 12:20:27;;;;;;;3.65;1.80;;;24.60;95.10;;;;;;5068935;28;20282;-68
2021/08/11 12:22:53;;;;;;;4.07;1.40;;;24.40;94.70;;;;;;5069463;28;20032;-67
2021/08/11 12:25:27;;;;;;;5.18;1.25;;;24.30;94.50;;;;;;5088084;28;20043;-68
2021/08/11 12:28:12;;;;;;;4.30;1.75;;;24.30;94.30;;;;;;5074712;28;20695;-68
2021/08/11 12:30:40;;;;;;;2.22;0.95;;;24.10;93.60;;;;;;5084519;28;20463;-67
2021/08/11 12:33:07;;;;;;;2.67;1.20;;;24.10;94.20;;;;;;5087208;28;20028;-67
2021/08/11 12:35:36;;;;;;;1.83;0.88;;;24.00;94.00;;;;;;5072343;28;20067;-68
2021/08/11 12:38:02;;;;;;;4.93;1.13;;;23.90;94.60;;;;;;5088345;28;20032;-67
2021/08/11 12:40:36;;;;;;;4.53;0.88;;;23.90;93.10;;;;;;5087733;28;20553;-67
2021/08/11 12:43:04;;;;;;;2.75;0.85;;;23.80;93.00;;;;;;5069657;28;20074;-67
2021/08/11 12:45:47;;;;;;;2.25;1.27;;;23.70;95.00;;;;;;5077380;28;20036;-67
2021/08/11 12:48:29;;;;;;;2.10;1.10;;;23.80;95.70;;;;;;5086335;28;20040;-68